sensor_id;sensor_type;location;lat;lon;timestamp;temperature;humidity
65478;SHT31;53678;39.642;22.430;2022-08-21T00:02:19;26.53;74.31
65478;SHT31;53678;39.642;22.430;2022-08-21T00:04:46;26.58;74.30
65478;SHT31;53678;39.642;22.430;2022-08-21T00:07:12;26.45;74.43
65478;SHT31;53678;39.642;22.430;2022-08-21T00:09:38;26.45;74.65
65478;SHT31;53678;39.642;22.430;2022-08-21T00:12:05;26.41;74.84
65478;SHT31;53678;39.642;22.430;2022-08-21T00:14:31;26.35;74.86
65478;SHT31;53678;39.642;22.430;2022-08-21T00:16:58;26.21;75.36
65478;SHT31;53678;39.642;22.430;2022-08-21T00:19:24;26.29;74.98
65478;SHT31;53678;39.642;22.430;2022-08-21T00:21:54;26.42;74.43
65478;SHT31;53678;39.642;22.430;2022-08-21T00:24:21;26.51;74.25
65478;SHT31;53678;39.642;22.430;2022-08-21T00:26:48;26.49;74.23
65478;SHT31;53678;39.642;22.430;2022-08-21T00:29:14;26.58;74.15
65478;SHT31;53678;39.642;22.430;2022-08-21T00:31:42;26.60;73.85
65478;SHT31;53678;39.642;22.430;2022-08-21T00:34:09;26.49;74.17
65478;SHT31;53678;39.642;22.430;2022-08-21T00:36:36;26.45;73.43
65478;SHT31;53678;39.642;22.430;2022-08-21T00:39:05;26.34;73.40
65478;SHT31;53678;39.642;22.430;2022-08-21T00:41:34;26.20;74.15
65478;SHT31;53678;39.642;22.430;2022-08-21T00:44:00;26.32;73.70
65478;SHT31;53678;39.642;22.430;2022-08-21T00:46:26;26.55;72.57
65478;SHT31;53678;39.642;22.430;2022-08-21T00:48:52;26.56;72.58
65478;SHT31;53678;39.642;22.430;2022-08-21T00:51:23;26.56;72.41
65478;SHT31;53678;39.642;22.430;2022-08-21T00:53:54;26.52;72.22
65478;SHT31;53678;39.642;22.430;2022-08-21T00:56:23;26.49;72.43
65478;SHT31;53678;39.642;22.430;2022-08-21T00:58:50;26.62;71.89
65478;SHT31;53678;39.642;22.430;2022-08-21T01:01:17;26.44;72.49
65478;SHT31;53678;39.642;22.430;2022-08-21T01:03:43;26.49;72.42
65478;SHT31;53678;39.642;22.430;2022-08-21T01:06:09;26.65;72.18
65478;SHT31;53678;39.642;22.430;2022-08-21T01:08:35;26.69;72.05
65478;SHT31;53678;39.642;22.430;2022-08-21T01:11:02;26.78;72.02
65478;SHT31;53678;39.642;22.430;2022-08-21T01:13:30;26.82;71.89
65478;SHT31;53678;39.642;22.430;2022-08-21T01:15:59;26.80;71.97
65478;SHT31;53678;39.642;22.430;2022-08-21T01:18:27;26.83;71.93
65478;SHT31;53678;39.642;22.430;2022-08-21T01:21:20;26.86;71.85
65478;SHT31;53678;39.642;22.430;2022-08-21T01:23:50;26.79;72.21
65478;SHT31;53678;39.642;22.430;2022-08-21T01:26:18;26.92;71.92
65478;SHT31;53678;39.642;22.430;2022-08-21T01:28:54;26.92;71.71
65478;SHT31;53678;39.642;22.430;2022-08-21T01:31:23;26.95;71.75
65478;SHT31;53678;39.642;22.430;2022-08-21T01:33:49;26.90;71.72
65478;SHT31;53678;39.642;22.430;2022-08-21T01:36:15;26.93;71.51
65478;SHT31;53678;39.642;22.430;2022-08-21T01:38:41;26.85;71.73
65478;SHT31;53678;39.642;22.430;2022-08-21T01:41:07;26.83;71.67
65478;SHT31;53678;39.642;22.430;2022-08-21T01:43:33;26.87;71.22
65478;SHT31;53678;39.642;22.430;2022-08-21T01:45:58;26.87;71.65
65478;SHT31;53678;39.642;22.430;2022-08-21T01:48:25;26.83;71.34
65478;SHT31;53678;39.642;22.430;2022-08-21T01:50:51;26.65;71.20
65478;SHT31;53678;39.642;22.430;2022-08-21T01:53:16;26.58;71.47
65478;SHT31;53678;39.642;22.430;2022-08-21T01:55:43;26.69;71.16
65478;SHT31;53678;39.642;22.430;2022-08-21T01:58:09;26.42;72.30
65478;SHT31;53678;39.642;22.430;2022-08-21T02:00:35;26.41;72.40
65478;SHT31;53678;39.642;22.430;2022-08-21T02:03:01;26.41;72.49
65478;SHT31;53678;39.642;22.430;2022-08-21T02:05:27;26.36;72.63
65478;SHT31;53678;39.642;22.430;2022-08-21T02:07:54;26.51;72.24
65478;SHT31;53678;39.642;22.430;2022-08-21T02:10:27;26.36;72.39
65478;SHT31;53678;39.642;22.430;2022-08-21T02:12:54;26.29;72.65
65478;SHT31;53678;39.642;22.430;2022-08-21T02:15:21;26.22;72.82
65478;SHT31;53678;39.642;22.430;2022-08-21T02:17:54;25.98;73.70
65478;SHT31;53678;39.642;22.430;2022-08-21T02:20:29;25.80;73.58
65478;SHT31;53678;39.642;22.430;2022-08-21T02:22:55;25.76;73.68
65478;SHT31;53678;39.642;22.430;2022-08-21T02:25:24;25.73;73.72
65478;SHT31;53678;39.642;22.430;2022-08-21T02:27:50;25.32;75.14
65478;SHT31;53678;39.642;22.430;2022-08-21T02:30:22;25.46;74.78
65478;SHT31;53678;39.642;22.430;2022-08-21T02:32:49;25.54;74.45
65478;SHT31;53678;39.642;22.430;2022-08-21T02:35:15;25.50;74.34
65478;SHT31;53678;39.642;22.430;2022-08-21T02:37:49;25.74;73.79
65478;SHT31;53678;39.642;22.430;2022-08-21T02:40:17;25.73;73.95
65478;SHT31;53678;39.642;22.430;2022-08-21T02:42:43;25.77;73.98
65478;SHT31;53678;39.642;22.430;2022-08-21T02:45:10;25.79;73.79
65478;SHT31;53678;39.642;22.430;2022-08-21T02:47:36;25.80;73.94
65478;SHT31;53678;39.642;22.430;2022-08-21T02:50:04;25.80;74.07
65478;SHT31;53678;39.642;22.430;2022-08-21T02:52:30;25.79;74.27
65478;SHT31;53678;39.642;22.430;2022-08-21T02:54:55;25.80;74.31
65478;SHT31;53678;39.642;22.430;2022-08-21T02:57:21;25.87;74.08
65478;SHT31;53678;39.642;22.430;2022-08-21T02:59:47;25.87;73.84
65478;SHT31;53678;39.642;22.430;2022-08-21T03:02:13;25.69;75.04
65478;SHT31;53678;39.642;22.430;2022-08-21T03:04:39;25.66;75.11
65478;SHT31;53678;39.642;22.430;2022-08-21T03:07:05;25.21;76.66
65478;SHT31;53678;39.642;22.430;2022-08-21T03:09:31;25.53;74.84
65478;SHT31;53678;39.642;22.430;2022-08-21T03:11:56;25.77;73.62
65478;SHT31;53678;39.642;22.430;2022-08-21T03:14:23;25.81;72.77
65478;SHT31;53678;39.642;22.430;2022-08-21T03:16:48;25.80;72.85
65478;SHT31;53678;39.642;22.430;2022-08-21T03:19:15;25.94;72.42
65478;SHT31;53678;39.642;22.430;2022-08-21T03:21:41;26.00;72.13
65478;SHT31;53678;39.642;22.430;2022-08-21T03:24:07;26.02;72.00
65478;SHT31;53678;39.642;22.430;2022-08-21T03:26:33;26.08;71.50
65478;SHT31;53678;39.642;22.430;2022-08-21T03:28:59;26.09;70.79
65478;SHT31;53678;39.642;22.430;2022-08-21T03:31:25;26.13;70.05
65478;SHT31;53678;39.642;22.430;2022-08-21T03:33:57;26.15;69.92
65478;SHT31;53678;39.642;22.430;2022-08-21T03:36:23;26.20;70.14
65478;SHT31;53678;39.642;22.430;2022-08-21T03:38:49;26.25;70.52
65478;SHT31;53678;39.642;22.430;2022-08-21T03:41:15;26.22;70.69
65478;SHT31;53678;39.642;22.430;2022-08-21T03:43:41;26.20;70.97
65478;SHT31;53678;39.642;22.430;2022-08-21T03:46:07;25.96;71.44
65478;SHT31;53678;39.642;22.430;2022-08-21T03:48:34;26.21;70.88
65478;SHT31;53678;39.642;22.430;2022-08-21T03:51:00;26.20;70.89
65478;SHT31;53678;39.642;22.430;2022-08-21T03:53:26;26.11;71.21
65478;SHT31;53678;39.642;22.430;2022-08-21T03:55:53;26.21;71.04
65478;SHT31;53678;39.642;22.430;2022-08-21T03:58:22;26.28;69.71
65478;SHT31;53678;39.642;22.430;2022-08-21T04:00:51;26.27;69.42
65478;SHT31;53678;39.642;22.430;2022-08-21T04:03:17;26.11;69.69
65478;SHT31;53678;39.642;22.430;2022-08-21T04:05:44;26.21;69.19
65478;SHT31;53678;39.642;22.430;2022-08-21T04:08:11;26.14;69.55
65478;SHT31;53678;39.642;22.430;2022-08-21T04:10:39;26.11;69.56
65478;SHT31;53678;39.642;22.430;2022-08-21T04:13:06;26.25;69.32
65478;SHT31;53678;39.642;22.430;2022-08-21T04:15:33;26.39;69.39
65478;SHT31;53678;39.642;22.430;2022-08-21T04:17:59;26.46;69.18
65478;SHT31;53678;39.642;22.430;2022-08-21T04:20:26;26.52;69.09
65478;SHT31;53678;39.642;22.430;2022-08-21T04:22:52;26.60;68.96
65478;SHT31;53678;39.642;22.430;2022-08-21T04:25:20;26.63;69.25
65478;SHT31;53678;39.642;22.430;2022-08-21T04:27:47;26.60;69.87
65478;SHT31;53678;39.642;22.430;2022-08-21T04:30:15;26.55;70.15
65478;SHT31;53678;39.642;22.430;2022-08-21T04:32:46;26.36;70.64
65478;SHT31;53678;39.642;22.430;2022-08-21T04:35:14;26.14;71.59
65478;SHT31;53678;39.642;22.430;2022-08-21T04:37:40;26.34;70.97
65478;SHT31;53678;39.642;22.430;2022-08-21T04:40:06;26.27;70.94
65478;SHT31;53678;39.642;22.430;2022-08-21T04:42:42;26.39;70.82
65478;SHT31;53678;39.642;22.430;2022-08-21T04:45:16;26.07;72.41
65478;SHT31;53678;39.642;22.430;2022-08-21T04:47:41;26.17;72.06
65478;SHT31;53678;39.642;22.430;2022-08-21T04:50:08;26.35;71.57
65478;SHT31;53678;39.642;22.430;2022-08-21T04:52:34;26.25;71.58
65478;SHT31;53678;39.642;22.430;2022-08-21T04:55:00;25.94;72.71
65478;SHT31;53678;39.642;22.430;2022-08-21T04:57:26;26.00;72.98
65478;SHT31;53678;39.642;22.430;2022-08-21T04:59:53;27.07;69.82
65478;SHT31;53678;39.642;22.430;2022-08-21T05:02:19;26.86;69.84
65478;SHT31;53678;39.642;22.430;2022-08-21T05:04:49;27.26;69.05
65478;SHT31;53678;39.642;22.430;2022-08-21T05:07:22;27.82;67.51
65478;SHT31;53678;39.642;22.430;2022-08-21T05:09:48;27.81;66.79
65478;SHT31;53678;39.642;22.430;2022-08-21T05:12:14;28.50;65.41
65478;SHT31;53678;39.642;22.430;2022-08-21T05:14:40;28.68;64.13
65478;SHT31;53678;39.642;22.430;2022-08-21T05:17:08;28.23;65.44
65478;SHT31;53678;39.642;22.430;2022-08-21T05:19:35;28.64;64.44
65478;SHT31;53678;39.642;22.430;2022-08-21T05:22:01;28.87;63.39
65478;SHT31;53678;39.642;22.430;2022-08-21T05:24:28;29.05;62.50
65478;SHT31;53678;39.642;22.430;2022-08-21T05:26:53;28.94;63.89
65478;SHT31;53678;39.642;22.430;2022-08-21T05:29:20;28.03;65.74
65478;SHT31;53678;39.642;22.430;2022-08-21T05:31:46;28.75;64.29
65478;SHT31;53678;39.642;22.430;2022-08-21T05:34:13;29.86;60.99
65478;SHT31;53678;39.642;22.430;2022-08-21T05:36:39;30.73;58.05
65478;SHT31;53678;39.642;22.430;2022-08-21T05:39:05;31.41;55.81
65478;SHT31;53678;39.642;22.430;2022-08-21T05:41:31;32.22;53.08
65478;SHT31;53678;39.642;22.430;2022-08-21T05:43:56;32.73;52.09
65478;SHT31;53678;39.642;22.430;2022-08-21T05:46:22;32.68;49.81
65478;SHT31;53678;39.642;22.430;2022-08-21T05:48:48;32.53;50.40
65478;SHT31;53678;39.642;22.430;2022-08-21T05:51:15;32.53;50.19
65478;SHT31;53678;39.642;22.430;2022-08-21T05:53:43;32.27;50.28
65478;SHT31;53678;39.642;22.430;2022-08-21T05:56:11;31.62;52.10
65478;SHT31;53678;39.642;22.430;2022-08-21T05:58:38;31.34;52.63
65478;SHT31;53678;39.642;22.430;2022-08-21T06:01:04;31.47;52.43
65478;SHT31;53678;39.642;22.430;2022-08-21T06:03:37;31.24;52.90
65478;SHT31;53678;39.642;22.430;2022-08-21T06:06:03;30.89;53.58
65478;SHT31;53678;39.642;22.430;2022-08-21T06:08:30;30.69;53.84
65478;SHT31;53678;39.642;22.430;2022-08-21T06:10:58;30.71;54.19
65478;SHT31;53678;39.642;22.430;2022-08-21T06:13:24;30.55;54.68
65478;SHT31;53678;39.642;22.430;2022-08-21T06:16:01;30.45;55.31
65478;SHT31;53678;39.642;22.430;2022-08-21T06:18:27;30.52;55.00
65478;SHT31;53678;39.642;22.430;2022-08-21T06:20:52;30.52;54.97
65478;SHT31;53678;39.642;22.430;2022-08-21T06:23:18;30.36;55.50
65478;SHT31;53678;39.642;22.430;2022-08-21T06:25:44;30.56;54.79
65478;SHT31;53678;39.642;22.430;2022-08-21T06:28:10;30.32;55.18
65478;SHT31;53678;39.642;22.430;2022-08-21T06:30:38;29.23;57.94
65478;SHT31;53678;39.642;22.430;2022-08-21T06:33:05;30.03;55.60
65478;SHT31;53678;39.642;22.430;2022-08-21T06:35:33;29.98;55.81
65478;SHT31;53678;39.642;22.430;2022-08-21T06:37:59;29.78;56.48
65478;SHT31;53678;39.642;22.430;2022-08-21T06:40:28;29.86;57.11
65478;SHT31;53678;39.642;22.430;2022-08-21T06:42:54;30.72;54.47
65478;SHT31;53678;39.642;22.430;2022-08-21T06:45:21;30.92;54.34
65478;SHT31;53678;39.642;22.430;2022-08-21T06:47:47;29.38;57.77
65478;SHT31;53678;39.642;22.430;2022-08-21T06:50:13;30.01;56.57
65478;SHT31;53678;39.642;22.430;2022-08-21T06:52:39;28.88;59.08
65478;SHT31;53678;39.642;22.430;2022-08-21T06:55:07;29.05;58.58
65478;SHT31;53678;39.642;22.430;2022-08-21T06:57:33;30.38;55.67
65478;SHT31;53678;39.642;22.430;2022-08-21T06:59:59;30.82;53.55
65478;SHT31;53678;39.642;22.430;2022-08-21T07:02:25;31.11;52.69
65478;SHT31;53678;39.642;22.430;2022-08-21T07:04:51;31.41;52.89
65478;SHT31;53678;39.642;22.430;2022-08-21T07:07:17;30.75;55.09
65478;SHT31;53678;39.642;22.430;2022-08-21T07:09:43;30.07;55.56
65478;SHT31;53678;39.642;22.430;2022-08-21T07:12:09;30.54;53.50
65478;SHT31;53678;39.642;22.430;2022-08-21T07:14:35;30.27;54.44
65478;SHT31;53678;39.642;22.430;2022-08-21T07:17:02;30.59;52.62
65478;SHT31;53678;39.642;22.430;2022-08-21T07:19:27;30.93;51.97
65478;SHT31;53678;39.642;22.430;2022-08-21T07:21:58;31.06;51.62
65478;SHT31;53678;39.642;22.430;2022-08-21T07:24:25;30.84;52.11
65478;SHT31;53678;39.642;22.430;2022-08-21T07:26:51;31.33;50.99
65478;SHT31;53678;39.642;22.430;2022-08-21T07:29:17;30.34;53.55
65478;SHT31;53678;39.642;22.430;2022-08-21T07:31:44;30.96;52.29
65478;SHT31;53678;39.642;22.430;2022-08-21T07:34:10;31.02;51.60
65478;SHT31;53678;39.642;22.430;2022-08-21T07:36:35;30.46;52.44
65478;SHT31;53678;39.642;22.430;2022-08-21T07:39:01;30.72;52.40
65478;SHT31;53678;39.642;22.430;2022-08-21T07:41:29;30.94;51.83
65478;SHT31;53678;39.642;22.430;2022-08-21T07:43:59;31.45;51.16
65478;SHT31;53678;39.642;22.430;2022-08-21T07:46:25;31.64;50.97
65478;SHT31;53678;39.642;22.430;2022-08-21T07:48:52;30.82;51.81
65478;SHT31;53678;39.642;22.430;2022-08-21T07:51:18;30.71;52.68
65478;SHT31;53678;39.642;22.430;2022-08-21T07:53:50;30.46;52.83
65478;SHT31;53678;39.642;22.430;2022-08-21T07:56:17;30.24;53.00
65478;SHT31;53678;39.642;22.430;2022-08-21T07:58:43;30.61;52.32
65478;SHT31;53678;39.642;22.430;2022-08-21T08:01:09;30.62;51.78
65478;SHT31;53678;39.642;22.430;2022-08-21T08:03:35;30.25;52.31
65478;SHT31;53678;39.642;22.430;2022-08-21T08:06:02;30.54;52.04
65478;SHT31;53678;39.642;22.430;2022-08-21T08:08:30;30.05;52.69
65478;SHT31;53678;39.642;22.430;2022-08-21T08:10:57;29.96;52.84
65478;SHT31;53678;39.642;22.430;2022-08-21T08:13:24;30.04;52.90
65478;SHT31;53678;39.642;22.430;2022-08-21T08:15:50;30.20;52.80
65478;SHT31;53678;39.642;22.430;2022-08-21T08:18:16;30.23;53.08
65478;SHT31;53678;39.642;22.430;2022-08-21T08:20:42;30.66;51.91
65478;SHT31;53678;39.642;22.430;2022-08-21T08:23:12;30.72;51.93
65478;SHT31;53678;39.642;22.430;2022-08-21T08:25:38;30.71;52.16
65478;SHT31;53678;39.642;22.430;2022-08-21T08:28:05;31.24;51.32
65478;SHT31;53678;39.642;22.430;2022-08-21T08:30:31;31.78;50.43
65478;SHT31;53678;39.642;22.430;2022-08-21T08:32:57;31.82;50.01
65478;SHT31;53678;39.642;22.430;2022-08-21T08:35:23;31.92;50.03
65478;SHT31;53678;39.642;22.430;2022-08-21T08:37:51;31.95;49.99
65478;SHT31;53678;39.642;22.430;2022-08-21T08:40:46;32.30;49.08
65478;SHT31;53678;39.642;22.430;2022-08-21T08:43:13;32.64;48.70
65478;SHT31;53678;39.642;22.430;2022-08-21T08:45:42;32.10;50.13
65478;SHT31;53678;39.642;22.430;2022-08-21T08:48:13;31.81;50.31
65478;SHT31;53678;39.642;22.430;2022-08-21T08:50:54;31.64;50.57
65478;SHT31;53678;39.642;22.430;2022-08-21T08:53:41;31.57;50.47
65478;SHT31;53678;39.642;22.430;2022-08-21T08:56:08;31.77;49.62
65478;SHT31;53678;39.642;22.430;2022-08-21T08:58:38;31.44;49.61
65478;SHT31;53678;39.642;22.430;2022-08-21T09:01:11;31.54;49.43
65478;SHT31;53678;39.642;22.430;2022-08-21T09:03:39;31.89;48.47
65478;SHT31;53678;39.642;22.430;2022-08-21T09:09:07;31.29;50.57
65478;SHT31;53678;39.642;22.430;2022-08-21T09:11:54;31.13;49.28
65478;SHT31;53678;39.642;22.430;2022-08-21T09:14:47;31.35;49.60
65478;SHT31;53678;39.642;22.430;2022-08-21T09:23:04;31.42;49.27
65478;SHT31;53678;39.642;22.430;2022-08-21T09:25:50;31.51;49.15
65478;SHT31;53678;39.642;22.430;2022-08-21T09:28:18;30.86;50.98
65478;SHT31;53678;39.642;22.430;2022-08-21T09:30:44;31.57;49.34
65478;SHT31;53678;39.642;22.430;2022-08-21T09:33:12;31.30;49.44
65478;SHT31;53678;39.642;22.430;2022-08-21T09:35:54;31.75;48.82
65478;SHT31;53678;39.642;22.430;2022-08-21T09:38:35;31.19;50.26
65478;SHT31;53678;39.642;22.430;2022-08-21T09:41:05;31.71;48.31
65478;SHT31;53678;39.642;22.430;2022-08-21T09:43:32;31.67;47.92
65478;SHT31;53678;39.642;22.430;2022-08-21T09:46:23;31.37;48.11
65478;SHT31;53678;39.642;22.430;2022-08-21T09:48:52;31.19;49.17
65478;SHT31;53678;39.642;22.430;2022-08-21T09:51:22;31.67;48.58
65478;SHT31;53678;39.642;22.430;2022-08-21T09:56:40;32.08;48.19
65478;SHT31;53678;39.642;22.430;2022-08-21T09:59:35;31.93;48.41
65478;SHT31;53678;39.642;22.430;2022-08-21T10:02:27;32.04;48.24
65478;SHT31;53678;39.642;22.430;2022-08-21T10:04:57;31.41;49.54
65478;SHT31;53678;39.642;22.430;2022-08-21T10:07:25;30.75;50.02
65478;SHT31;53678;39.642;22.430;2022-08-21T10:09:59;30.51;50.92
65478;SHT31;53678;39.642;22.430;2022-08-21T10:12:42;30.56;51.05
65478;SHT31;53678;39.642;22.430;2022-08-21T10:15:13;31.07;50.06
65478;SHT31;53678;39.642;22.430;2022-08-21T10:17:59;31.55;48.71
65478;SHT31;53678;39.642;22.430;2022-08-21T10:21:21;31.45;48.16
65478;SHT31;53678;39.642;22.430;2022-08-21T10:37:48;31.86;50.53
65478;SHT31;53678;39.642;22.430;2022-08-21T10:40:27;31.81;50.76
65478;SHT31;53678;39.642;22.430;2022-08-21T10:48:41;31.82;51.02
65478;SHT31;53678;39.642;22.430;2022-08-21T10:54:29;31.11;52.02
65478;SHT31;53678;39.642;22.430;2022-08-21T10:57:11;31.26;51.71
65478;SHT31;53678;39.642;22.430;2022-08-21T10:59:44;31.50;51.14
65478;SHT31;53678;39.642;22.430;2022-08-21T11:05:33;31.55;51.57
65478;SHT31;53678;39.642;22.430;2022-08-21T11:08:14;31.41;50.84
65478;SHT31;53678;39.642;22.430;2022-08-21T11:10:52;31.35;50.52
65478;SHT31;53678;39.642;22.430;2022-08-21T11:16:10;31.95;49.69
65478;SHT31;53678;39.642;22.430;2022-08-21T11:19:39;31.99;50.78
65478;SHT31;53678;39.642;22.430;2022-08-21T11:26:56;31.82;50.29
65478;SHT31;53678;39.642;22.430;2022-08-21T11:29:31;31.72;49.96
65478;SHT31;53678;39.642;22.430;2022-08-21T11:35:10;31.78;50.24
65478;SHT31;53678;39.642;22.430;2022-08-21T11:37:47;32.10;49.23
65478;SHT31;53678;39.642;22.430;2022-08-21T11:46:03;31.99;49.46
65478;SHT31;53678;39.642;22.430;2022-08-21T11:51:23;32.05;48.36
65478;SHT31;53678;39.642;22.430;2022-08-21T11:54:05;32.05;48.04
65478;SHT31;53678;39.642;22.430;2022-08-21T11:56:44;31.90;49.65
65478;SHT31;53678;39.642;22.430;2022-08-21T11:59:17;31.89;49.69
65478;SHT31;53678;39.642;22.430;2022-08-21T12:01:48;31.84;49.44
65478;SHT31;53678;39.642;22.430;2022-08-21T12:04:41;31.99;49.15
65478;SHT31;53678;39.642;22.430;2022-08-21T12:07:31;32.16;49.34
65478;SHT31;53678;39.642;22.430;2022-08-21T12:09:58;32.10;49.91
65478;SHT31;53678;39.642;22.430;2022-08-21T12:12:31;31.79;50.55
65478;SHT31;53678;39.642;22.430;2022-08-21T12:18:27;31.68;50.78
65478;SHT31;53678;39.642;22.430;2022-08-21T12:23:33;31.95;49.96
65478;SHT31;53678;39.642;22.430;2022-08-21T12:28:26;31.98;50.36
65478;SHT31;53678;39.642;22.430;2022-08-21T12:30:53;32.02;50.70
65478;SHT31;53678;39.642;22.430;2022-08-21T12:33:39;31.57;51.42
65478;SHT31;53678;39.642;22.430;2022-08-21T12:36:10;31.78;51.38
65478;SHT31;53678;39.642;22.430;2022-08-21T12:38:57;31.74;50.82
65478;SHT31;53678;39.642;22.430;2022-08-21T12:41:35;31.75;51.09
65478;SHT31;53678;39.642;22.430;2022-08-21T12:44:09;31.58;51.33
65478;SHT31;53678;39.642;22.430;2022-08-21T12:46:48;31.48;51.68
65478;SHT31;53678;39.642;22.430;2022-08-21T12:49:26;31.69;51.65
65478;SHT31;53678;39.642;22.430;2022-08-21T12:52:14;31.86;51.01
65478;SHT31;53678;39.642;22.430;2022-08-21T12:54:44;31.67;51.03
65478;SHT31;53678;39.642;22.430;2022-08-21T12:57:19;31.57;51.32
65478;SHT31;53678;39.642;22.430;2022-08-21T12:59:45;31.57;51.78
65478;SHT31;53678;39.642;22.430;2022-08-21T13:02:17;31.52;50.83
65478;SHT31;53678;39.642;22.430;2022-08-21T13:04:44;31.42;52.44
65478;SHT31;53678;39.642;22.430;2022-08-21T13:07:14;31.44;52.12
65478;SHT31;53678;39.642;22.430;2022-08-21T13:09:50;31.48;52.26
65478;SHT31;53678;39.642;22.430;2022-08-21T13:12:17;31.78;51.47
65478;SHT31;53678;39.642;22.430;2022-08-21T13:14:46;31.38;52.17
65478;SHT31;53678;39.642;22.430;2022-08-21T13:17:17;31.30;51.78
65478;SHT31;53678;39.642;22.430;2022-08-21T13:20:04;31.35;51.79
65478;SHT31;53678;39.642;22.430;2022-08-21T13:22:30;31.50;51.87
65478;SHT31;53678;39.642;22.430;2022-08-21T13:24:57;31.45;51.69
65478;SHT31;53678;39.642;22.430;2022-08-21T13:27:27;31.21;52.36
65478;SHT31;53678;39.642;22.430;2022-08-21T13:30:06;31.10;52.87
65478;SHT31;53678;39.642;22.430;2022-08-21T13:32:35;31.16;52.87
65478;SHT31;53678;39.642;22.430;2022-08-21T13:35:17;30.68;54.39
65478;SHT31;53678;39.642;22.430;2022-08-21T13:37:46;30.78;53.99
65478;SHT31;53678;39.642;22.430;2022-08-21T13:40:16;30.71;53.93
65478;SHT31;53678;39.642;22.430;2022-08-21T13:42:45;30.63;53.89
65478;SHT31;53678;39.642;22.430;2022-08-21T13:45:23;30.49;55.00
65478;SHT31;53678;39.642;22.430;2022-08-21T13:47:50;30.10;55.81
65478;SHT31;53678;39.642;22.430;2022-08-21T13:50:18;30.21;56.58
65478;SHT31;53678;39.642;22.430;2022-08-21T13:53:06;29.94;57.48
65478;SHT31;53678;39.642;22.430;2022-08-21T13:55:42;29.78;57.83
65478;SHT31;53678;39.642;22.430;2022-08-21T13:58:10;29.66;58.50
65478;SHT31;53678;39.642;22.430;2022-08-21T14:00:49;29.45;59.93
65478;SHT31;53678;39.642;22.430;2022-08-21T14:03:31;29.25;61.31
65478;SHT31;53678;39.642;22.430;2022-08-21T14:05:58;29.47;60.51
65478;SHT31;53678;39.642;22.430;2022-08-21T14:08:36;29.52;60.56
65478;SHT31;53678;39.642;22.430;2022-08-21T14:11:04;29.39;60.94
65478;SHT31;53678;39.642;22.430;2022-08-21T14:13:40;29.36;61.38
65478;SHT31;53678;39.642;22.430;2022-08-21T14:16:20;29.20;61.90
65478;SHT31;53678;39.642;22.430;2022-08-21T14:19:10;28.98;63.26
65478;SHT31;53678;39.642;22.430;2022-08-21T14:21:41;28.94;63.61
65478;SHT31;53678;39.642;22.430;2022-08-21T14:24:14;28.84;63.60
65478;SHT31;53678;39.642;22.430;2022-08-21T14:26:48;28.57;64.46
65478;SHT31;53678;39.642;22.430;2022-08-21T14:29:16;28.65;63.86
65478;SHT31;53678;39.642;22.430;2022-08-21T14:31:48;28.63;63.22
65478;SHT31;53678;39.642;22.430;2022-08-21T14:34:15;28.47;64.15
65478;SHT31;53678;39.642;22.430;2022-08-21T14:36:43;28.44;64.74
65478;SHT31;53678;39.642;22.430;2022-08-21T14:39:09;28.26;65.54
65478;SHT31;53678;39.642;22.430;2022-08-21T14:41:36;28.40;64.82
65478;SHT31;53678;39.642;22.430;2022-08-21T14:44:02;28.46;64.42
65478;SHT31;53678;39.642;22.430;2022-08-21T14:46:30;28.36;64.17
65478;SHT31;53678;39.642;22.430;2022-08-21T14:48:56;28.29;65.37
65478;SHT31;53678;39.642;22.430;2022-08-21T14:51:22;28.54;64.71
65478;SHT31;53678;39.642;22.430;2022-08-21T14:53:48;28.16;66.26
65478;SHT31;53678;39.642;22.430;2022-08-21T14:56:14;28.37;66.08
65478;SHT31;53678;39.642;22.430;2022-08-21T14:58:47;28.49;65.84
65478;SHT31;53678;39.642;22.430;2022-08-21T15:01:15;28.47;65.73
65478;SHT31;53678;39.642;22.430;2022-08-21T15:03:44;28.53;65.34
65478;SHT31;53678;39.642;22.430;2022-08-21T15:06:10;28.53;65.00
65478;SHT31;53678;39.642;22.430;2022-08-21T15:08:36;28.23;66.18
65478;SHT31;53678;39.642;22.430;2022-08-21T15:11:04;27.93;67.30
65478;SHT31;53678;39.642;22.430;2022-08-21T15:13:30;27.96;67.30
65478;SHT31;53678;39.642;22.430;2022-08-21T15:15:57;27.99;66.62
65478;SHT31;53678;39.642;22.430;2022-08-21T15:18:27;27.89;66.19
65478;SHT31;53678;39.642;22.430;2022-08-21T15:20:53;28.03;65.60
65478;SHT31;53678;39.642;22.430;2022-08-21T15:23:19;28.03;65.14
65478;SHT31;53678;39.642;22.430;2022-08-21T15:25:46;28.09;65.02
65478;SHT31;53678;39.642;22.430;2022-08-21T15:28:14;27.98;64.64
65478;SHT31;53678;39.642;22.430;2022-08-21T15:30:43;28.05;64.42
65478;SHT31;53678;39.642;22.430;2022-08-21T15:33:10;28.06;64.57
65478;SHT31;53678;39.642;22.430;2022-08-21T15:35:36;28.02;64.42
65478;SHT31;53678;39.642;22.430;2022-08-21T15:38:02;28.14;63.93
65478;SHT31;53678;39.642;22.430;2022-08-21T15:40:29;28.13;63.85
65478;SHT31;53678;39.642;22.430;2022-08-21T15:42:58;28.06;63.20
65478;SHT31;53678;39.642;22.430;2022-08-21T15:45:24;28.12;63.02
65478;SHT31;53678;39.642;22.430;2022-08-21T15:47:50;28.19;62.91
65478;SHT31;53678;39.642;22.430;2022-08-21T15:50:16;28.27;62.76
65478;SHT31;53678;39.642;22.430;2022-08-21T15:52:42;28.22;62.96
65478;SHT31;53678;39.642;22.430;2022-08-21T15:55:09;28.12;63.13
65478;SHT31;53678;39.642;22.430;2022-08-21T15:57:37;28.13;63.38
65478;SHT31;53678;39.642;22.430;2022-08-21T16:00:14;28.14;63.81
65478;SHT31;53678;39.642;22.430;2022-08-21T16:02:44;28.20;63.40
65478;SHT31;53678;39.642;22.430;2022-08-21T16:05:11;28.26;63.47
65478;SHT31;53678;39.642;22.430;2022-08-21T16:07:39;28.19;63.76
65478;SHT31;53678;39.642;22.430;2022-08-21T16:10:06;28.09;63.89
65478;SHT31;53678;39.642;22.430;2022-08-21T16:12:35;28.09;64.03
65478;SHT31;53678;39.642;22.430;2022-08-21T16:15:06;28.16;64.27
65478;SHT31;53678;39.642;22.430;2022-08-21T16:17:35;28.13;64.65
65478;SHT31;53678;39.642;22.430;2022-08-21T16:20:04;28.12;65.06
65478;SHT31;53678;39.642;22.430;2022-08-21T16:22:31;27.88;65.49
65478;SHT31;53678;39.642;22.430;2022-08-21T16:24:57;27.91;65.39
65478;SHT31;53678;39.642;22.430;2022-08-21T16:27:23;27.85;64.55
65478;SHT31;53678;39.642;22.430;2022-08-21T16:29:49;27.89;64.62
65478;SHT31;53678;39.642;22.430;2022-08-21T16:32:15;28.09;64.12
65478;SHT31;53678;39.642;22.430;2022-08-21T16:34:44;27.96;64.56
65478;SHT31;53678;39.642;22.430;2022-08-21T16:37:12;28.03;63.96